National Weather Service United States Department of Commerce


000
FTPA31 PHFO 210541
TAFSTU
TAF
NSTU 210541Z 2106/2206 32008KT P6SM VCSH FEW020 BKN035 OVC100
TEMPO 2106/2110 32018G30KT 2SM +SHRA
FM212200 34015G25KT 6SM SHRA BR VCTS BKN020CB OVC040=


503
SAZS31 NSTU 210900
MTRPPG
METAR NSTU 210850Z VRB03KT 10SM SCT021 BKN040 OVC110 27/24 A2981 RMK
SLP097 8/42/ T02700242 52017=


METAR Formatted Surface Weather Observation  Issued: 02/20/2020 10:00:34 PM SST

NSTU Observation History

 

Significant Weather Charts